createdAt,value
2022-10-19T00:14:12.921Z,18.7
2022-10-19T00:20:10.826Z,17.4
2022-10-19T00:26:12.966Z,18
2022-10-19T00:32:05.846Z,20.1
2022-10-19T00:37:59.724Z,24.3
2022-10-19T00:43:57.429Z,24.4
2022-10-19T00:49:54.922Z,25.1
2022-10-19T00:55:51.588Z,24.8
2022-10-19T01:01:43.604Z,25.3
2022-10-19T01:07:36.301Z,26.4
2022-10-19T01:13:27.880Z,25.6
2022-10-19T01:19:24.099Z,25.2
2022-10-19T01:25:33.287Z,26.1
2022-10-19T01:31:40.797Z,26.7
2022-10-19T01:37:36.590Z,28.1
2022-10-19T01:43:40.985Z,28.8
2022-10-19T01:49:42.472Z,27.2
2022-10-19T01:55:54.241Z,26.4
2022-10-19T02:02:25.122Z,28.8
2022-10-19T02:08:25.023Z,28.9
2022-10-19T02:14:32.732Z,21.8
2022-10-19T02:20:26.896Z,24.8
2022-10-19T02:26:26.158Z,21
2022-10-19T02:32:46.145Z,23.9
2022-10-19T02:38:37.000Z,22.2
2022-10-19T02:44:32.548Z,19.6
2022-10-19T02:50:35.608Z,19.3
2022-10-19T02:56:30.460Z,18.9
2022-10-19T03:02:23.390Z,19.3
2022-10-19T03:08:17.130Z,18.6
2022-10-19T03:14:21.591Z,18.7
2022-10-19T03:20:16.111Z,19.6
2022-10-19T03:26:16.515Z,19.8
2022-10-19T03:32:21.182Z,20
2022-10-19T03:44:36.644Z,22
2022-10-19T03:50:28.918Z,21.6
2022-10-19T03:56:19.511Z,22.5
2022-10-19T04:02:11.027Z,21.5
2022-10-19T04:08:06.790Z,18.2
2022-10-19T04:13:59.500Z,17.8
2022-10-19T04:19:52.788Z,17
2022-10-19T04:25:45.290Z,15.8
2022-10-19T04:31:36.775Z,14.6
2022-10-19T04:37:32.353Z,16.5
2022-10-19T04:43:27.453Z,16.8
2022-10-19T04:49:42.462Z,15.5
2022-10-19T05:02:20.647Z,20.7
2022-10-19T05:08:27.142Z,19.4
2022-10-19T05:14:40.433Z,20.9
2022-10-19T05:20:41.251Z,20.9
2022-10-19T05:26:33.019Z,19.3
2022-10-19T05:32:45.399Z,20.3
2022-10-19T06:04:01.941Z,24
2022-10-19T06:16:39.243Z,24.7
2022-10-19T06:30:28.603Z,25.4
2022-10-19T06:54:53.960Z,23.1
2022-10-19T07:00:46.397Z,23.4
2022-10-19T07:06:43.965Z,23
2022-10-19T07:12:43.390Z,24.6
2022-10-19T07:18:42.187Z,24.1
2022-10-19T07:24:52.106Z,24.1
2022-10-19T07:30:56.722Z,25.4
2022-10-19T07:43:24.161Z,26.9
2022-10-19T07:49:44.324Z,27.6
2022-10-19T07:55:51.598Z,28.3
2022-10-19T08:08:04.531Z,26.2
2022-10-19T08:14:11.547Z,26.5
2022-10-19T08:39:12.359Z,26.8
2022-10-19T08:45:28.429Z,24.9
2022-10-19T08:51:36.394Z,25.6
2022-10-19T08:57:44.560Z,23.9
2022-10-19T09:04:12.812Z,22.6
2022-10-19T09:10:02.507Z,23.7
2022-10-19T09:16:11.720Z,21.6
2022-10-19T09:22:15.724Z,20.8
2022-10-19T09:28:11.922Z,18.2
2022-10-19T09:34:20.091Z,15.2
2022-10-19T09:40:18.787Z,11.8
2022-10-19T09:46:41.868Z,9.8
2022-10-19T09:52:31.689Z,9.8
2022-10-19T09:58:28.014Z,9.3
2022-10-19T10:04:20.972Z,7.9
2022-10-19T10:10:13.685Z,7.4
2022-10-19T10:16:07.440Z,6.9
2022-10-19T10:21:58.071Z,7
2022-10-19T10:27:52.245Z,6.9
2022-10-19T10:39:45.472Z,6.6
2022-10-19T10:45:37.702Z,6.2
2022-10-19T10:51:30.513Z,6.8
2022-10-19T11:03:15.652Z,6.6
2022-10-19T11:09:08.533Z,6.5
2022-10-19T11:15:00.732Z,6.6
2022-10-19T11:20:53.125Z,6.3
2022-10-19T11:26:48.270Z,6.4
2022-10-19T11:32:40.324Z,7
2022-10-19T11:38:36.351Z,6.6
2022-10-19T11:44:27.484Z,6.6
2022-10-19T11:50:19.884Z,7
2022-10-19T11:56:11.017Z,6.8
2022-10-19T12:02:07.107Z,6.2
2022-10-19T12:07:57.123Z,6.4
2022-10-19T12:13:48.347Z,5.7
2022-10-19T12:19:38.494Z,6.6
2022-10-19T12:25:29.957Z,6
2022-10-19T12:31:20.893Z,5.4
2022-10-19T12:37:11.866Z,5.8
2022-10-19T12:43:01.891Z,6.1
2022-10-19T12:48:52.857Z,6
2022-10-19T12:54:43.876Z,6.5
2022-10-19T13:00:35.270Z,5.4
2022-10-19T13:06:25.782Z,5.3
2022-10-19T13:12:37.264Z,5.4
2022-10-19T13:18:28.934Z,5.9
2022-10-19T13:24:22.582Z,5.1
2022-10-19T13:30:12.955Z,4.9
2022-10-19T13:36:07.106Z,5.1
2022-10-19T13:42:03.665Z,4.8
2022-10-19T13:47:55.043Z,5.1
2022-10-19T13:53:47.071Z,4.5
2022-10-19T13:59:38.550Z,4.6
2022-10-19T14:05:30.043Z,4.6
2022-10-19T14:11:21.064Z,4.8
2022-10-19T14:17:14.557Z,4.8
2022-10-19T14:23:05.569Z,5.1
2022-10-19T14:28:56.636Z,4.2
2022-10-19T14:34:47.307Z,4.5
2022-10-19T14:40:38.464Z,4.5
2022-10-19T14:46:30.365Z,4.3
2022-10-19T14:52:21.896Z,4.2
2022-10-19T14:58:13.190Z,4.4
2022-10-19T15:04:06.590Z,4.8
2022-10-19T15:09:59.293Z,4.5
2022-10-19T15:15:50.602Z,4.5
2022-10-19T15:21:41.801Z,4.4
2022-10-19T15:27:32.697Z,4.2
2022-10-19T15:33:24.340Z,4.4
2022-10-19T15:39:49.139Z,4.3
2022-10-19T15:45:38.217Z,4.1
2022-10-19T15:51:28.505Z,4.6
2022-10-19T15:57:21.024Z,4.3
2022-10-19T16:09:41.530Z,4.7
